createdAt,value
2022-08-09T00:00:08.188Z,97588.56
2022-08-09T00:02:49.051Z,97590.38
2022-08-09T00:06:18.957Z,97584.13
2022-08-09T00:08:11.298Z,97591.72
2022-08-09T00:10:40.091Z,97585.13
2022-08-09T00:13:16.813Z,97585.03
2022-08-09T00:15:59.992Z,97584.41
2022-08-09T00:18:34.750Z,97580.91
2022-08-09T00:21:07.831Z,97583.09
2022-08-09T00:23:56.599Z,97576.56
2022-08-09T00:26:32.308Z,97575.16
2022-08-09T00:29:01.671Z,97573.56
2022-08-09T00:31:57.398Z,97580.84
2022-08-09T00:34:19.163Z,97584.00
2022-08-09T00:36:46.566Z,97582.81
2022-08-09T00:40:10.438Z,97582.31
2022-08-09T00:44:10.889Z,97574.34
2022-08-09T00:44:47.256Z,97585.16
2022-08-09T00:47:15.577Z,97570.34
2022-08-09T00:49:52.544Z,97573.81
2022-08-09T00:52:28.056Z,97582.13
2022-08-09T00:55:00.275Z,97579.97
2022-08-09T00:57:34.300Z,97576.50
2022-08-09T01:00:21.264Z,97571.56
2022-08-09T01:02:51.989Z,97571.13
2022-08-09T01:05:46.454Z,97577.91
2022-08-09T01:08:26.660Z,97578.97
2022-08-09T01:11:09.378Z,97582.88
2022-08-09T01:14:00.202Z,97579.69
2022-08-09T01:16:47.285Z,97581.00
2022-08-09T01:19:39.928Z,97574.66
2022-08-09T01:22:21.698Z,97574.03
2022-08-09T01:24:52.159Z,97584.22
2022-08-09T01:27:20.318Z,97584.63
2022-08-09T01:29:56.305Z,97593.97
2022-08-09T01:32:39.057Z,97598.69
2022-08-09T01:35:38.337Z,97597.38
2022-08-09T01:38:15.395Z,97605.91
2022-08-09T01:40:53.126Z,97602.16
2022-08-09T01:43:51.013Z,97613.94
2022-08-09T01:46:25.127Z,97598.03
2022-08-09T01:48:59.879Z,97605.50
2022-08-09T01:51:28.631Z,97606.97
2022-08-09T01:54:07.280Z,97607.38
2022-08-09T01:56:35.466Z,97601.66
2022-08-09T01:59:07.930Z,97605.56
2022-08-09T02:01:59.231Z,97608.47
2022-08-09T02:04:23.567Z,97615.63
2022-08-09T02:07:17.803Z,97614.50
2022-08-09T02:10:29.778Z,97615.72
2022-08-09T02:12:57.398Z,97618.25
2022-08-09T02:15:27.266Z,97615.50
2022-08-09T02:18:15.627Z,97612.25
2022-08-09T02:20:45.825Z,97607.97
2022-08-09T02:23:42.952Z,97614.94
2022-08-09T02:26:27.170Z,97613.50
2022-08-09T02:28:57.846Z,97606.41
2022-08-09T02:31:36.299Z,97613.78
2022-08-09T02:34:13.626Z,97618.63
2022-08-09T02:36:54.236Z,97614.50
2022-08-09T02:39:33.532Z,97612.28
2022-08-09T02:42:09.183Z,97616.47
2022-08-09T02:44:38.334Z,97622.00
2022-08-09T02:47:07.398Z,97625.47
2022-08-09T02:49:41.690Z,97619.13
2022-08-09T02:52:13.044Z,97626.41
2022-08-09T02:54:54.016Z,97615.47
2022-08-09T02:57:24.950Z,97615.34
2022-08-09T03:00:20.590Z,97624.88
2022-08-09T03:02:58.046Z,97620.47
2022-08-09T03:05:28.381Z,97620.84
2022-08-09T03:07:55.795Z,97616.75
2022-08-09T03:10:25.162Z,97609.69
2022-08-09T03:12:52.774Z,97618.50
2022-08-09T03:15:20.866Z,97617.38
2022-08-09T03:17:58.047Z,97608.16
2022-08-09T03:20:29.632Z,97613.47
2022-08-09T03:22:58.278Z,97609.97
2022-08-09T03:26:03.260Z,97617.47
2022-08-09T03:28:15.430Z,97610.16
2022-08-09T03:30:44.058Z,97604.34
2022-08-09T03:33:18.676Z,97613.03
2022-08-09T03:36:15.730Z,97613.94
2022-08-09T03:38:35.622Z,97610.03
2022-08-09T03:41:04.294Z,97609.22
2022-08-09T03:43:31.750Z,97615.16
2022-08-09T03:46:03.949Z,97615.31
2022-08-09T03:48:51.619Z,97614.28
2022-08-09T03:51:57.588Z,97615.50
2022-08-09T03:54:11.135Z,97616.13
2022-08-09T03:56:41.171Z,97618.78
2022-08-09T03:59:17.055Z,97618.56
2022-08-09T04:01:49.331Z,97618.56
2022-08-09T04:04:17.011Z,97620.28
2022-08-09T04:06:49.112Z,97619.41
2022-08-09T04:09:47.655Z,97624.69
2022-08-09T04:12:30.800Z,97631.31
2022-08-09T04:15:01.555Z,97635.78
2022-08-09T04:17:29.853Z,97638.66
2022-08-09T04:19:56.765Z,97632.66
2022-08-09T04:22:23.771Z,97631.44
2022-08-09T04:24:50.519Z,97637.47
2022-08-09T04:27:22.101Z,97639.72
2022-08-09T04:29:50.988Z,97650.06
2022-08-09T04:32:23.509Z,97645.03
2022-08-09T04:34:58.520Z,97645.50
2022-08-09T04:37:45.647Z,97641.41
2022-08-09T04:40:19.193Z,97641.09
2022-08-09T04:42:48.591Z,97640.97
2022-08-09T04:45:20.392Z,97639.88
2022-08-09T04:48:00.994Z,97651.16
2022-08-09T04:50:31.914Z,97641.88
2022-08-09T04:53:02.156Z,97647.41
2022-08-09T04:55:37.860Z,97653.25
2022-08-09T04:58:09.687Z,97655.16
2022-08-09T05:00:36.896Z,97654.78
2022-08-09T05:03:40.635Z,97659.09
2022-08-09T05:06:06.863Z,97660.53
2022-08-09T05:08:35.108Z,97659.50
2022-08-09T05:11:02.729Z,97667.50
2022-08-09T05:13:32.892Z,97673.25
2022-08-09T05:16:00.928Z,97678.91
2022-08-09T05:18:39.558Z,97679.72
2022-08-09T05:21:22.840Z,97673.31
2022-08-09T05:23:59.530Z,97673.63
2022-08-09T05:26:45.344Z,97680.91
2022-08-09T05:29:22.149Z,97679.19
2022-08-09T05:31:56.745Z,97687.28
2022-08-09T05:34:30.188Z,97675.78
2022-08-09T05:37:06.489Z,97684.28
2022-08-09T05:39:36.038Z,97679.47
2022-08-09T05:42:17.662Z,97679.75
2022-08-09T05:44:50.429Z,97684.97
2022-08-09T05:47:19.147Z,97688.44
2022-08-09T05:50:25.456Z,97689.16
2022-08-09T05:52:33.023Z,97691.78
2022-08-09T05:55:06.826Z,97692.38
2022-08-09T05:57:55.511Z,97686.63
2022-08-09T06:00:22.140Z,97687.19
2022-08-09T06:02:49.147Z,97691.16
2022-08-09T06:05:31.067Z,97692.25
2022-08-09T06:08:09.260Z,97693.50
2022-08-09T06:10:38.529Z,97690.56
2022-08-09T06:13:20.194Z,97689.59
2022-08-09T06:15:51.271Z,97696.34
2022-08-09T06:18:24.923Z,97689.19
2022-08-09T06:20:57.107Z,97700.72
2022-08-09T06:23:55.033Z,97699.03
2022-08-09T06:26:14.391Z,97704.44
2022-08-09T06:28:43.380Z,97698.53
2022-08-09T06:31:10.561Z,97709.38
2022-08-09T06:33:40.579Z,97708.34
2022-08-09T06:36:09.468Z,97701.81
2022-08-09T06:38:38.782Z,97704.94
2022-08-09T06:41:18.863Z,97707.31
2022-08-09T06:43:48.264Z,97709.63
2022-08-09T06:46:40.107Z,97711.94
2022-08-09T06:49:02.782Z,97711.72
2022-08-09T06:51:39.055Z,97713.41
2022-08-09T06:54:09.268Z,97713.69
2022-08-09T06:56:45.376Z,97715.44
2022-08-09T07:00:50.760Z,97711.66
2022-08-09T07:02:03.694Z,97714.09
2022-08-09T07:04:31.951Z,97714.44
2022-08-09T07:07:00.291Z,97714.00
2022-08-09T07:09:56.050Z,97716.41
2022-08-09T07:12:18.686Z,97713.66
2022-08-09T07:14:51.286Z,97719.44
2022-08-09T07:17:21.500Z,97718.34
2022-08-09T07:19:50.653Z,97717.25
2022-08-09T07:22:18.659Z,97720.31
2022-08-09T07:25:01.403Z,97731.19
2022-08-09T07:27:34.436Z,97721.75
2022-08-09T07:30:13.416Z,97731.25
2022-08-09T07:32:41.524Z,97724.16
2022-08-09T07:35:12.329Z,97736.34
2022-08-09T07:37:43.444Z,97731.53
2022-08-09T07:40:27.078Z,97743.06
2022-08-09T07:43:00.817Z,97737.28
2022-08-09T07:45:39.422Z,97745.31
2022-08-09T07:48:28.781Z,97744.47
2022-08-09T07:51:10.372Z,97746.56
2022-08-09T07:54:05.072Z,97737.38
2022-08-09T07:56:33.902Z,97747.38
2022-08-09T07:59:01.137Z,97746.34
2022-08-09T08:01:34.316Z,97741.13
2022-08-09T08:04:02.628Z,97742.88
2022-08-09T08:06:31.584Z,97736.94
2022-08-09T08:09:03.511Z,97738.03
2022-08-09T08:12:23.870Z,97737.69
2022-08-09T08:14:18.583Z,97748.75
2022-08-09T08:17:00.751Z,97745.69
2022-08-09T08:19:35.057Z,97747.47
2022-08-09T08:22:02.321Z,97746.38
2022-08-09T08:24:34.201Z,97738.28
2022-08-09T08:27:06.821Z,97754.63
2022-08-09T08:29:48.600Z,97740.88
2022-08-09T08:32:24.153Z,97736.84
2022-08-09T08:34:58.504Z,97740.56
2022-08-09T08:37:41.135Z,97734.25
2022-08-09T08:40:16.322Z,97744.28
2022-08-09T08:42:47.322Z,97747.91
2022-08-09T08:45:14.809Z,97748.00
2022-08-09T08:47:45.221Z,97743.78
2022-08-09T08:50:18.266Z,97743.22
2022-08-09T08:52:59.485Z,97746.84
2022-08-09T08:55:27.834Z,97756.72
2022-08-09T08:57:57.262Z,97754.00
2022-08-09T09:00:30.556Z,97755.47
2022-08-09T09:03:11.486Z,97761.22
2022-08-09T09:06:00.786Z,97763.38
2022-08-09T09:08:38.110Z,97773.19
2022-08-09T09:11:08.945Z,97768.41
2022-08-09T09:13:56.282Z,97776.81
2022-08-09T09:16:34.583Z,97773.94
2022-08-09T09:19:22.767Z,97757.84
2022-08-09T09:22:11.586Z,97765.66
2022-08-09T09:24:59.100Z,97760.25
2022-08-09T09:28:06.931Z,97767.56
2022-08-09T09:30:41.334Z,97767.72
2022-08-09T09:33:16.782Z,97765.56
2022-08-09T09:36:01.585Z,97757.81
2022-08-09T09:38:51.548Z,97753.63
2022-08-09T09:41:32.546Z,97754.38
2022-08-09T09:44:12.890Z,97752.91
2022-08-09T09:46:50.429Z,97759.22
2022-08-09T09:49:56.028Z,97751.59
2022-08-09T09:52:16.327Z,97744.03
2022-08-09T09:55:23.734Z,97755.19
2022-08-09T09:58:07.565Z,97752.38
2022-08-09T10:00:55.925Z,97749.03
2022-08-09T10:03:39.807Z,97744.91
2022-08-09T10:06:07.061Z,97745.59
2022-08-09T10:08:43.226Z,97751.28
2022-08-09T10:12:01.413Z,97733.75
2022-08-09T10:14:30.557Z,97743.75
2022-08-09T10:17:38.700Z,97752.16
2022-08-09T10:19:47.172Z,97736.03
2022-08-09T10:22:38.994Z,97739.69
2022-08-09T10:25:12.538Z,97741.78
2022-08-09T10:27:55.803Z,97729.22
2022-08-09T10:32:13.572Z,97735.66
2022-08-09T10:34:05.192Z,97736.44
2022-08-09T10:36:01.194Z,97727.47
2022-08-09T10:38:55.489Z,97726.09
2022-08-09T10:41:20.679Z,97731.03
2022-08-09T10:43:58.664Z,97712.00
2022-08-09T10:46:55.213Z,97721.06
2022-08-09T10:49:50.977Z,97719.00
2022-08-09T10:52:42.610Z,97717.59
2022-08-09T10:55:25.792Z,97733.88
2022-08-09T10:57:55.404Z,97732.69
2022-08-09T11:00:29.312Z,97720.13
2022-08-09T11:03:46.884Z,97719.56
2022-08-09T11:06:18.506Z,97716.78
2022-08-09T11:08:51.165Z,97714.66
2022-08-09T11:11:19.964Z,97710.53
2022-08-09T11:13:50.104Z,97703.50
2022-08-09T11:16:40.771Z,97699.41
2022-08-09T11:19:10.131Z,97709.38
2022-08-09T11:22:10.865Z,97698.25
2022-08-09T11:25:08.382Z,97703.25
2022-08-09T11:28:03.744Z,97705.44
2022-08-09T11:30:38.045Z,97707.56
2022-08-09T11:33:08.087Z,97708.97
2022-08-09T11:35:55.626Z,97701.25
2022-08-09T11:38:28.814Z,97703.28
2022-08-09T11:41:37.866Z,97708.25
2022-08-09T11:44:06.983Z,97701.31
2022-08-09T11:46:54.269Z,97694.38
2022-08-09T11:50:55.070Z,97702.84
2022-08-09T11:53:15.941Z,97694.34
2022-08-09T11:55:53.889Z,97700.00
2022-08-09T11:58:32.399Z,97695.78
2022-08-09T12:01:08.738Z,97693.03
2022-08-09T12:03:56.684Z,97686.72
2022-08-09T12:06:32.758Z,97687.47
2022-08-09T12:09:17.582Z,97683.25
2022-08-09T12:12:03.482Z,97686.78
2022-08-09T12:14:40.977Z,97682.59
2022-08-09T12:17:34.336Z,97674.16
2022-08-09T12:20:21.378Z,97679.81
2022-08-09T12:23:01.230Z,97671.34
2022-08-09T12:25:37.457Z,97680.50
2022-08-09T12:29:13.569Z,97686.03
2022-08-09T12:31:58.983Z,97679.03
2022-08-09T12:34:05.307Z,97674.88
2022-08-09T12:36:33.758Z,97677.00
2022-08-09T12:39:04.296Z,97677.06
2022-08-09T12:41:39.171Z,97660.88
2022-08-09T12:44:10.170Z,97672.81
2022-08-09T12:46:49.075Z,97665.06
2022-08-09T12:49:17.287Z,97658.00
2022-08-09T12:52:02.850Z,97665.09
2022-08-09T12:56:12.926Z,97662.91
2022-08-09T12:57:36.583Z,97660.09
2022-08-09T13:00:25.118Z,97653.06
2022-08-09T13:03:01.002Z,97658.72
2022-08-09T13:05:51.699Z,97661.53
2022-08-09T13:08:40.158Z,97658.03
2022-08-09T13:11:13.068Z,97655.94
2022-08-09T13:14:40.976Z,97654.56
2022-08-09T13:17:04.063Z,97664.44
2022-08-09T13:20:10.518Z,97656.69
2022-08-09T13:22:36.328Z,97652.47
2022-08-09T13:25:14.701Z,97646.09
2022-08-09T13:27:54.343Z,97660.91
2022-08-09T13:30:49.425Z,97661.59
2022-08-09T13:33:11.677Z,97658.06
2022-08-09T13:36:39.025Z,97657.34
2022-08-09T13:38:46.073Z,97642.56
2022-08-09T13:41:57.551Z,97642.56
2022-08-09T13:44:13.728Z,97636.91
2022-08-09T13:47:29.287Z,97634.09
2022-08-09T13:49:37.581Z,97634.81
2022-08-09T13:52:05.638Z,97642.56
2022-08-09T13:54:36.473Z,97637.63
2022-08-09T13:57:35.127Z,97627.06
2022-08-09T13:59:58.291Z,97637.66
2022-08-09T14:02:26.149Z,97634.81
2022-08-09T14:04:59.645Z,97635.53
2022-08-09T14:07:30.324Z,97627.06
2022-08-09T14:10:17.167Z,97622.13
2022-08-09T14:12:55.909Z,97620.69
2022-08-09T14:16:09.284Z,97623.47
2022-08-09T14:18:19.514Z,97627.03
2022-08-09T14:20:46.885Z,97619.25
2022-08-09T14:23:20.367Z,97618.50
2022-08-09T14:25:52.031Z,97621.28
2022-08-09T14:28:19.304Z,97611.41
2022-08-09T14:30:47.838Z,97621.25
2022-08-09T14:33:20.827Z,97615.66
2022-08-09T14:35:52.406Z,97617.81
2022-08-09T14:38:20.045Z,97617.06
2022-08-09T14:41:02.034Z,97614.19
2022-08-09T14:43:47.754Z,97607.81
2022-08-09T14:46:54.753Z,97607.81
2022-08-09T14:49:10.514Z,97614.88
2022-08-09T14:51:42.008Z,97612.72
2022-08-09T14:54:09.623Z,97618.31
2022-08-09T14:56:57.280Z,97611.91
2022-08-09T14:59:23.703Z,97620.38
2022-08-09T15:01:50.450Z,97615.44
2022-08-09T15:04:17.157Z,97620.44
2022-08-09T15:06:49.730Z,97628.22
2022-08-09T15:09:16.842Z,97611.97
2022-08-09T15:12:04.963Z,97623.28
2022-08-09T15:14:38.531Z,97609.16
2022-08-09T15:17:09.834Z,97611.94
2022-08-09T15:19:54.391Z,97624.00
2022-08-09T15:22:26.078Z,97614.75
2022-08-09T15:24:53.934Z,97631.66
2022-08-09T15:27:21.246Z,97621.06
2022-08-09T15:30:57.627Z,97621.03
2022-08-09T15:32:35.799Z,97616.00
2022-08-09T15:35:40.293Z,97614.47
2022-08-09T15:37:57.169Z,97617.09
2022-08-09T15:40:37.236Z,97614.25
2022-08-09T15:43:10.248Z,97611.56
2022-08-09T15:46:07.219Z,97612.69
2022-08-09T15:48:29.126Z,97618.81
2022-08-09T15:50:58.049Z,97607.03
2022-08-09T15:54:03.357Z,97603.63
2022-08-09T15:56:21.643Z,97598.47
2022-08-09T15:59:05.337Z,97590.28
2022-08-09T16:01:35.530Z,97594.59
2022-08-09T16:04:03.351Z,97589.50
2022-08-09T16:06:35.782Z,97576.84
2022-08-09T16:09:05.885Z,97580.56
2022-08-09T16:11:33.233Z,97578.91
2022-08-09T16:14:04.727Z,97587.56
2022-08-09T16:16:37.205Z,97589.75
2022-08-09T16:19:06.078Z,97583.25
2022-08-09T16:21:35.619Z,97571.06
2022-08-09T16:24:04.718Z,97572.63
2022-08-09T16:26:35.254Z,97562.88
2022-08-09T16:29:10.407Z,97573.41
2022-08-09T16:32:18.924Z,97573.09
2022-08-09T16:34:24.963Z,97567.72
2022-08-09T16:36:51.750Z,97568.81
2022-08-09T16:39:19.278Z,97568.09
2022-08-09T16:42:02.690Z,97562.84
2022-08-09T16:44:32.375Z,97570.31
2022-08-09T16:47:04.107Z,97570.84
2022-08-09T16:50:29.192Z,97564.13
2022-08-09T16:52:34.805Z,97572.94
2022-08-09T16:55:01.679Z,97564.31
2022-08-09T16:58:08.243Z,97559.56
2022-08-09T17:00:16.058Z,97563.25
2022-08-09T17:02:43.918Z,97568.41
2022-08-09T17:05:19.644Z,97556.03
2022-08-09T17:08:43.014Z,97558.44
2022-08-09T17:10:34.129Z,97573.69
2022-08-09T17:13:03.419Z,97568.97
2022-08-09T17:15:59.203Z,97563.53
2022-08-09T17:18:27.059Z,97558.16
2022-08-09T17:20:56.906Z,97566.84
2022-08-09T17:23:37.089Z,97563.97
2022-08-09T17:26:10.468Z,97569.09
2022-08-09T17:28:39.373Z,97559.00
2022-08-09T17:31:06.062Z,97562.41
2022-08-09T17:33:35.974Z,97562.44
2022-08-09T17:36:05.393Z,97574.31
2022-08-09T17:38:39.395Z,97572.25
2022-08-09T17:41:08.029Z,97578.78
2022-08-09T17:43:37.283Z,97585.22
2022-08-09T17:46:09.110Z,97581.13
2022-08-09T17:48:46.617Z,97585.44
2022-08-09T17:51:20.077Z,97595.44
2022-08-09T17:53:53.042Z,97597.19
2022-08-09T17:56:29.131Z,97588.56
2022-08-09T17:59:03.166Z,97597.41
2022-08-09T18:01:57.951Z,97596.28
2022-08-09T18:04:22.641Z,97598.59
2022-08-09T18:06:54.443Z,97597.28
2022-08-09T18:09:23.131Z,97606.56
2022-08-09T18:12:14.823Z,97603.06
2022-08-09T18:14:49.879Z,97598.16
2022-08-09T18:17:18.569Z,97603.78
2022-08-09T18:20:54.368Z,97599.56
2022-08-09T18:22:40.306Z,97603.06
2022-08-09T18:25:17.768Z,97606.53
2022-08-09T18:28:05.332Z,97607.19
2022-08-09T18:30:48.905Z,97614.91
2022-08-09T18:33:16.441Z,97612.00
2022-08-09T18:35:59.027Z,97616.88
2022-08-09T18:38:27.726Z,97615.38
2022-08-09T18:40:55.454Z,97620.19
2022-08-09T18:43:22.982Z,97624.38
2022-08-09T18:46:47.019Z,97618.75
2022-08-09T18:48:37.090Z,97631.31
2022-08-09T18:51:05.015Z,97631.09
2022-08-09T18:53:56.981Z,97624.00
2022-08-09T18:56:27.183Z,97631.69
2022-08-09T18:58:56.555Z,97632.91
2022-08-09T19:01:24.095Z,97636.19
2022-08-09T19:03:54.659Z,97636.06
2022-08-09T19:06:28.737Z,97634.59
2022-08-09T19:09:02.638Z,97640.09
2022-08-09T19:11:37.813Z,97632.97
2022-08-09T19:14:06.706Z,97644.75
2022-08-09T19:16:36.316Z,97643.94
2022-08-09T19:19:25.047Z,97643.00
2022-08-09T19:22:06.321Z,97632.88
2022-08-09T19:24:38.295Z,97641.13
2022-08-09T19:27:07.556Z,97651.44
2022-08-09T19:30:21.183Z,97641.50
2022-08-09T19:32:26.673Z,97639.75
2022-08-09T19:34:58.414Z,97656.03
2022-08-09T19:37:25.653Z,97652.88
2022-08-09T19:40:04.776Z,97658.47
2022-08-09T19:42:32.647Z,97645.84
2022-08-09T19:44:59.605Z,97649.19
2022-08-09T19:47:27.133Z,97652.50
2022-08-09T19:50:07.977Z,97656.56
2022-08-09T19:52:49.638Z,97650.72
2022-08-09T19:55:30.468Z,97654.50
2022-08-09T19:57:57.718Z,97654.25
2022-08-09T20:00:24.427Z,97656.13
2022-08-09T20:04:10.992Z,97653.81
2022-08-09T20:05:45.991Z,97652.75
2022-08-09T20:08:16.152Z,97657.47
2022-08-09T20:10:52.506Z,97657.13
2022-08-09T20:13:21.150Z,97667.75
2022-08-09T20:16:35.773Z,97660.38
2022-08-09T20:18:35.050Z,97664.78
2022-08-09T20:21:02.260Z,97666.50
2022-08-09T20:23:39.820Z,97661.19
2022-08-09T20:26:08.039Z,97659.69
2022-08-09T20:28:47.713Z,97670.09
2022-08-09T20:31:15.779Z,97662.47
2022-08-09T20:33:44.310Z,97663.63
2022-08-09T20:36:12.440Z,97664.56
2022-08-09T20:41:35.019Z,97671.66
2022-08-09T20:44:09.797Z,97668.19
2022-08-09T20:46:43.374Z,97675.31
2022-08-09T20:49:13.008Z,97673.31
2022-08-09T20:51:42.318Z,97679.53
2022-08-09T20:54:16.641Z,97672.88
2022-08-09T20:56:46.818Z,97667.59
2022-08-09T20:59:16.746Z,97680.75
2022-08-09T21:01:51.028Z,97673.31
2022-08-09T21:05:52.070Z,97676.78
2022-08-09T21:07:11.751Z,97670.00
2022-08-09T21:09:55.543Z,97676.25
2022-08-09T21:15:12.905Z,97668.19
2022-08-09T21:18:21.398Z,97665.75
2022-08-09T21:20:30.028Z,97661.38
2022-08-09T21:22:58.387Z,97661.84
2022-08-09T21:25:55.850Z,97669.16
2022-08-09T21:28:36.258Z,97660.66
2022-08-09T21:31:13.761Z,97666.09
2022-08-09T21:33:51.019Z,97664.53
2022-08-09T21:36:25.719Z,97658.00
2022-08-09T21:38:56.678Z,97661.59
2022-08-09T21:42:05.400Z,97660.03
2022-08-09T21:44:32.879Z,97664.53
2022-08-09T21:47:04.706Z,97661.25
2022-08-09T21:49:39.656Z,97658.47
2022-08-09T21:52:16.297Z,97659.19
2022-08-09T21:55:03.206Z,97668.88
2022-08-09T21:57:38.894Z,97669.53
2022-08-09T22:00:26.830Z,97664.09
2022-08-09T22:03:02.465Z,97661.88
2022-08-09T22:05:35.431Z,97659.09
2022-08-09T22:08:06.161Z,97663.00
2022-08-09T22:10:33.155Z,97658.50
2022-08-09T22:13:07.222Z,97668.56
2022-08-09T22:15:39.688Z,97658.03
2022-08-09T22:18:08.334Z,97658.31
2022-08-09T22:20:39.766Z,97658.44
2022-08-09T22:23:10.429Z,97645.75
2022-08-09T22:26:05.501Z,97651.16
2022-08-09T22:28:32.948Z,97652.31
2022-08-09T22:31:00.808Z,97650.19
2022-08-09T22:33:37.683Z,97644.13
2022-08-09T22:36:15.062Z,97648.47
2022-08-09T22:38:46.986Z,97654.50
2022-08-09T22:41:13.710Z,97652.88
2022-08-09T22:44:01.472Z,97644.25
2022-08-09T22:48:16.014Z,97648.94
2022-08-09T22:49:14.030Z,97653.00
2022-08-09T22:51:43.551Z,97646.00
2022-08-09T22:54:16.801Z,97644.59
2022-08-09T22:56:50.888Z,97648.00
2022-08-09T22:59:55.675Z,97652.63
2022-08-09T23:02:10.715Z,97648.97
2022-08-09T23:04:42.428Z,97653.13
2022-08-09T23:08:21.072Z,97641.22
2022-08-09T23:10:14.608Z,97650.09
2022-08-09T23:12:41.329Z,97644.16
2022-08-09T23:15:08.303Z,97640.50
2022-08-09T23:17:35.257Z,97643.69
2022-08-09T23:20:07.808Z,97639.41
2022-08-09T23:22:35.753Z,97637.97
2022-08-09T23:25:04.687Z,97637.19
2022-08-09T23:27:32.068Z,97639.56
2022-08-09T23:29:59.197Z,97626.31
2022-08-09T23:32:25.903Z,97632.44
2022-08-09T23:34:52.565Z,97629.31
2022-08-09T23:37:21.361Z,97627.91
2022-08-09T23:39:48.644Z,97627.84
2022-08-09T23:42:15.517Z,97627.75
2022-08-09T23:44:42.273Z,97630.50
2022-08-09T23:47:09.040Z,97631.31
2022-08-09T23:49:35.666Z,97624.78
2022-08-09T23:52:02.385Z,97621.88
2022-08-09T23:54:29.082Z,97625.19
2022-08-09T23:56:58.272Z,97616.72
2022-08-09T23:59:25.635Z,97623.59
